Time;durP1;ratioP1;P1;durP2;ratioP2;P2;SDS_P1;SDS_P2;PMS_P1;PMS_P2;Temp;Humidity;BMP_temperature;BMP_pressure;BME280_temperature;BME280_humidity;BME280_pressure;Samples;Min_cycle;Max_cycle;Signal;HPM_P1;HPM_P2
2022/08/28 00:00:35;;;;;;;21.98;4.70;;;15.80;98.50;;;;;;4806480;29;20054;-70
2022/08/28 00:03:01;;;;;;;23.67;4.57;;;;;;;;;;4806736;29;20203;-70
2022/08/28 00:05:29;;;;;;;22.33;4.30;;;15.90;98.60;;;;;;4806531;29;20042;-70
2022/08/28 00:07:56;;;;;;;20.05;4.43;;;;;;;;;;4806319;29;20401;-70
2022/08/28 00:10:22;;;;;;;25.08;4.68;;;;;;;;;;4806612;29;20058;-69
2022/08/28 00:12:49;;;;;;;16.70;4.90;;;;;;;;;;4806240;29;20112;-74
2022/08/28 00:15:17;;;;;;;33.03;4.93;;;;;;;;;;4806401;29;20054;-74
2022/08/28 00:17:43;;;;;;;20.80;5.50;;;;;;;;;;4806619;29;20504;-74
2022/08/28 00:20:10;;;;;;;18.10;4.07;;;;;;;;;;4791471;29;20475;-74
2022/08/28 00:22:37;;;;;;;19.00;4.15;;;;;;;;;;4806210;29;20108;-74
2022/08/28 00:25:09;;;;;;;23.15;4.47;;;15.40;99.00;;;;;;4791240;29;20086;-74
2022/08/28 00:27:51;;;;;;;13.32;4.10;;;15.90;99.90;;;;;;4806210;29;20061;-74
2022/08/28 00:30:34;;;;;;;13.48;3.90;;;16.30;99.90;;;;;;4791266;29;20378;-74
2022/08/28 00:33:10;;;;;;;24.40;4.05;;;15.30;99.30;;;;;;4805959;29;20051;-73
2022/08/28 00:35:37;;;;;;;24.33;4.57;;;15.60;99.90;;;;;;4805856;29;20047;-74
2022/08/28 00:38:04;;;;;;;22.30;5.53;;;;;;;;;;4806066;29;20117;-69
2022/08/28 00:40:31;;;;;;;19.52;4.28;;;;;;;;;;4805848;29;20051;-69
2022/08/28 00:42:59;;;;;;;19.48;4.28;;;;;;;;;;4805693;29;20079;-69
2022/08/28 00:45:25;;;;;;;15.23;3.92;;;15.40;98.60;;;;;;4806085;29;20107;-69
2022/08/28 00:47:52;;;;;;;20.77;4.28;;;;;;;;;;4805930;29;20409;-70
2022/08/28 00:50:23;;;;;;;20.85;4.32;;;15.30;99.40;;;;;;4790894;29;20111;-69
2022/08/28 00:52:54;;;;;;;20.83;4.07;;;15.30;99.30;;;;;;4805659;29;20086;-69
2022/08/28 00:55:21;;;;;;;14.10;3.80;;;;;;;;;;4805217;29;20043;-70
2022/08/28 00:57:53;;;;;;;12.25;3.78;;;15.40;99.30;;;;;;4790959;29;20438;-69
2022/08/28 01:00:24;;;;;;;11.18;3.55;;;15.30;99.30;;;;;;4805546;29;20058;-70
2022/08/28 01:02:51;;;;;;;23.57;4.80;;;;;;;;;;4805629;29;20515;-69
2022/08/28 01:05:19;;;;;;;18.33;4.25;;;15.80;99.90;;;;;;4805488;29;20115;-70
2022/08/28 01:07:46;;;;;;;20.75;4.18;;;14.20;99.90;;;;;;4805498;29;20122;-70
2022/08/28 01:10:17;;;;;;;16.38;4.13;;;15.40;99.50;;;;;;4790411;29;20055;-70
2022/08/28 01:12:43;;;;;;;17.90;4.50;;;15.30;99.40;;;;;;4805409;29;20050;-70
2022/08/28 01:15:13;;;;;;;19.45;3.58;;;14.30;99.90;;;;;;4805340;29;20488;-70
2022/08/28 01:17:42;;;;;;;18.23;4.20;;;;;;;;;;4790473;29;20047;-70
2022/08/28 01:20:16;;;;;;;18.33;4.05;;;15.30;99.90;;;;;;4805631;29;20491;-70
2022/08/28 01:23:16;;;;;;;19.15;4.30;;;15.20;98.50;;;;;;4805516;29;20050;-69
2022/08/28 01:25:42;;;;;;;15.10;4.00;;;;;;;;;;4805242;29;20046;-70
2022/08/28 01:28:11;;;;;;;25.75;3.70;;;14.80;99.90;;;;;;4805361;29;20078;-70
2022/08/28 01:30:43;;;;;;;14.07;4.28;;;15.10;99.50;;;;;;4805402;29;20046;-70
2022/08/28 01:33:09;;;;;;;13.60;3.65;;;;;;;;;;4805160;29;20061;-70
2022/08/28 01:35:39;;;;;;;16.05;3.45;;;15.30;99.60;;;;;;4805164;29;20055;-70
2022/08/28 01:38:06;;;;;;;18.10;3.60;;;;;;;;;;4790096;29;20076;-70
2022/08/28 01:40:38;;;;;;;17.17;3.58;;;15.40;99.80;;;;;;4805171;29;20042;-70
2022/08/28 01:43:10;;;;;;;21.60;3.78;;;15.90;99.90;;;;;;4805061;29;20184;-70
2022/08/28 01:45:36;;;;;;;24.88;4.03;;;;;;;;;;4805278;29;20125;-69
2022/08/28 01:48:04;;;;;;;23.25;4.50;;;15.20;99.80;;;;;;4805233;29;20400;-70
2022/08/28 01:50:30;;;;;;;18.92;3.83;;;;;;;;;;4805015;29;20082;-69
2022/08/28 01:52:56;;;;;;;12.82;3.40;;;;;;;;;;4805061;29;20047;-70
2022/08/28 01:55:22;;;;;;;16.35;4.20;;;;;;;;;;4804922;29;20057;-70
2022/08/28 01:57:51;;;;;;;18.15;4.13;;;15.00;99.80;;;;;;4804872;29;20043;-70
2022/08/28 02:00:17;;;;;;;14.25;3.45;;;16.30;99.90;;;;;;4804934;29;20136;-69
2022/08/28 02:02:43;;;;;;;13.18;3.40;;;;;;;;;;4775598;29;20059;-74
2022/08/28 02:05:10;;;;;;;17.52;3.50;;;15.20;99.50;;;;;;4804876;29;20093;-74
2022/08/28 02:07:37;;;;;;;18.10;3.60;;;15.00;99.60;;;;;;4807619;29;20107;-74
2022/08/28 02:10:05;;;;;;;26.58;3.60;;;15.10;99.90;;;;;;4793544;29;20043;-74
2022/08/28 02:12:32;;;;;;;16.27;3.53;;;;;;;;;;4808308;29;20089;-74
2022/08/28 02:14:58;;;;;;;15.07;3.38;;;;;;;;;;4808650;29;20054;-74
2022/08/28 02:17:24;;;;;;;15.13;4.13;;;;;;;;;;4808586;29;20365;-74
2022/08/28 02:19:50;;;;;;;15.35;3.10;;;;;;;;;;4808340;29;20126;-73
2022/08/28 02:22:17;;;;;;;15.85;3.75;;;;;;;;;;4808327;29;20518;-73
2022/08/28 02:24:42;;;;;;;24.70;3.55;;;13.80;99.90;;;;;;4808462;29;20042;-74
2022/08/28 02:27:09;;;;;;;20.35;3.40;;;;;;;;;;4778352;29;20054;-74
2022/08/28 02:29:35;;;;;;;20.02;2.72;;;;;;;;;;4808362;29;20377;-73
2022/08/28 02:32:01;;;;;;;15.55;3.30;;;;;;;;;;4808291;29;20399;-73
2022/08/28 02:34:27;;;;;;;13.13;3.85;;;;;;;;;;4808120;29;20050;-74
2022/08/28 02:36:52;;;;;;;23.25;2.88;;;14.70;99.90;;;;;;4808494;29;20043;-74
2022/08/28 02:39:18;;;;;;;14.90;3.25;;;14.60;99.90;;;;;;4794557;29;20189;-73
2022/08/28 02:41:44;;;;;;;14.75;3.50;;;15.40;99.90;;;;;;4808986;29;20493;-74
2022/08/28 02:44:10;;;;;;;17.33;3.67;;;;;;;;;;4809311;29;20071;-73
2022/08/28 02:46:36;;;;;;;9.50;2.97;;;;;;;;;;4794057;29;20155;-74
2022/08/28 02:49:02;;;;;;;16.98;3.53;;;;;;;;;;4808277;29;20049;-73
2022/08/28 02:51:30;;;;;;;13.98;3.25;;;;;;;;;;4808025;29;20527;-74
2022/08/28 02:53:56;;;;;;;14.98;3.17;;;;;;;;;;4807693;29;20086;-74
2022/08/28 02:56:23;;;;;;;10.00;3.00;;;;;;;;;;4807771;29;20069;-73
2022/08/28 02:58:49;;;;;;;15.82;3.30;;;;;;;;;;4792484;29;20042;-74
2022/08/28 03:01:15;;;;;;;15.10;3.45;;;;;;;;;;4807621;29;20501;-73
2022/08/28 03:03:41;;;;;;;18.38;3.78;;;;;;;;;;4807664;29;20121;-74
2022/08/28 03:06:10;;;;;;;15.57;3.10;;;15.00;99.90;;;;;;4807659;29;20051;-74
2022/08/28 03:08:37;;;;;;;8.40;3.10;;;;;;;;;;4807727;29;20051;-74
2022/08/28 03:11:03;;;;;;;14.25;3.30;;;14.00;99.90;;;;;;4807438;29;20054;-74
2022/08/28 03:13:29;;;;;;;12.35;3.00;;;;;;;;;;4807427;29;20047;-74
2022/08/28 03:15:56;;;;;;;21.58;3.42;;;14.60;99.90;;;;;;4807236;29;20312;-74
2022/08/28 03:18:24;;;;;;;25.42;3.63;;;14.70;99.90;;;;;;4806775;29;20057;-74
2022/08/28 03:20:50;;;;;;;16.70;3.35;;;;;;;;;;4807218;29;20062;-73
2022/08/28 03:23:25;;;;;;;15.38;3.83;;;;;;;;;;4807094;29;20082;-74
2022/08/28 03:26:07;;;;;;;18.60;3.15;;;14.90;99.90;;;;;;4807084;29;20049;-74
2022/08/28 03:28:43;;;;;;;17.77;3.50;;;13.70;99.90;;;;;;4807177;29;20130;-74
2022/08/28 03:31:12;;;;;;;25.95;3.85;;;15.20;99.90;;;;;;4792001;29;20111;-74
2022/08/28 03:33:40;;;;;;;12.73;3.40;;;;;;;;;;4806944;29;20536;-74
2022/08/28 03:36:07;;;;;;;11.50;2.65;;;13.70;99.90;;;;;;4806917;29;20047;-74
2022/08/28 03:38:33;;;;;;;14.77;3.55;;;;;;;;;;4777212;29;20051;-74
2022/08/28 03:41:00;;;;;;;7.97;3.33;;;;;;;;;;4807171;29;20051;-74
2022/08/28 03:43:26;;;;;;;14.75;2.90;;;;;;;;;;4807116;29;20047;-74
2022/08/28 03:45:52;;;;;;;20.02;3.50;;;;;;;;;;4807184;29;20047;-74
2022/08/28 03:48:19;;;;;;;22.65;3.40;;;14.70;99.90;;;;;;4806955;29;20175;-74
2022/08/28 03:50:45;;;;;;;11.75;3.03;;;;;;;;;;4807245;29;20141;-74
2022/08/28 03:53:11;;;;;;;17.02;2.95;;;;;;;;;;4806667;29;20051;-74
2022/08/28 03:55:40;;;;;;;18.88;3.42;;;15.00;99.90;;;;;;4806522;29;20511;-74
2022/08/28 03:58:06;;;;;;;13.77;2.92;;;;;;;;;;4791939;29;20065;-74
2022/08/28 04:00:33;;;;;;;23.23;4.20;;;;;;;;;;4806610;29;20062;-73
2022/08/28 04:02:59;;;;;;;14.35;3.15;;;;;;;;;;4806693;29;20428;-74
2022/08/28 04:05:25;;;;;;;18.27;2.90;;;;;;;;;;4806534;29;20116;-74
2022/08/28 04:07:52;;;;;;;15.88;3.60;;;;;;;;;;4791623;29;20062;-74
2022/08/28 04:10:18;;;;;;;19.17;4.07;;;;;;;;;;4806438;29;20054;-74
2022/08/28 04:12:45;;;;;;;21.52;3.10;;;;;;;;;;4806520;29;20051;-74
2022/08/28 04:15:11;;;;;;;16.60;3.85;;;;;;;;;;4806738;29;20043;-74
2022/08/28 04:17:39;;;;;;;14.60;3.15;;;14.80;99.90;;;;;;4806511;29;20453;-74
2022/08/28 04:20:06;;;;;;;16.98;3.33;;;;;;;;;;4806287;29;20051;-74
2022/08/28 04:22:33;;;;;;;14.45;3.40;;;;;;;;;;4806293;29;20051;-73
2022/08/28 04:24:59;;;;;;;15.43;3.33;;;;;;;;;;4805994;29;20519;-74
2022/08/28 04:27:25;;;;;;;18.00;3.83;;;;;;;;;;4791223;29;20388;-69
2022/08/28 04:29:51;;;;;;;19.73;3.53;;;;;;;;;;4805529;29;20116;-69
2022/08/28 04:32:17;;;;;;;17.92;3.05;;;;;;;;;;4805993;29;20576;-69
2022/08/28 04:34:43;;;;;;;13.25;2.92;;;;;;;;;;4805938;29;20050;-69
2022/08/28 04:37:09;;;;;;;14.95;3.30;;;;;;;;;;4806141;29;20184;-70
2022/08/28 04:39:35;;;;;;;18.90;3.75;;;;;;;;;;4806217;29;20159;-69
2022/08/28 04:42:01;;;;;;;16.38;3.22;;;;;;;;;;4805725;29;20116;-69
2022/08/28 04:44:27;;;;;;;16.27;3.13;;;;;;;;;;4790863;29;20047;-70
2022/08/28 04:46:53;;;;;;;20.92;3.42;;;;;;;;;;4805707;29;20058;-70
2022/08/28 04:49:20;;;;;;;14.82;3.60;;;;;;;;;;4806012;29;20119;-70
2022/08/28 04:51:46;;;;;;;9.77;3.47;;;;;;;;;;4791155;29;20043;-70
2022/08/28 04:54:12;;;;;;;15.55;3.33;;;;;;;;;;4790971;29;20112;-70
2022/08/28 04:56:39;;;;;;;16.08;3.05;;;15.30;99.90;;;;;;4790707;29;20045;-70
2022/08/28 04:59:05;;;;;;;17.52;3.50;;;;;;;;;;4805490;29;20055;-70
2022/08/28 05:01:31;;;;;;;17.25;3.35;;;;;;;;;;4805668;29;20066;-70
2022/08/28 05:04:01;;;;;;;15.40;3.40;;;15.50;99.90;;;;;;4805518;29;20125;-70
2022/08/28 05:06:28;;;;;;;14.10;3.42;;;15.50;99.90;;;;;;4805931;29;20078;-70
2022/08/28 05:08:56;;;;;;;14.13;3.13;;;15.60;99.90;;;;;;4805517;29;20051;-69
2022/08/28 05:11:23;;;;;;;21.98;3.40;;;15.60;99.90;;;;;;4806667;29;20039;-70
2022/08/28 05:13:50;;;;;;;18.70;3.08;;;;;;;;;;4805197;29;20051;-69
2022/08/28 05:16:17;;;;;;;13.77;2.97;;;;;;;;;;4790442;29;20054;-70
2022/08/28 05:18:43;;;;;;;17.90;2.80;;;;;;;;;;4805426;29;20107;-70
2022/08/28 05:21:14;;;;;;;16.60;3.83;;;14.80;99.90;;;;;;4805226;29;20043;-67
2022/08/28 05:23:40;;;;;;;23.05;3.60;;;;;;;;;;4790212;29;20493;-68
2022/08/28 05:26:12;;;;;;;19.42;3.67;;;15.60;99.90;;;;;;4805015;29;20054;-68
2022/08/28 05:28:39;;;;;;;15.45;2.80;;;;;;;;;;4805446;29;20392;-68
2022/08/28 05:31:23;;;;;;;18.70;2.78;;;15.60;99.90;;;;;;4805131;29;20126;-68
2022/08/28 05:33:51;;;;;;;16.08;3.42;;;;;;;;;;4805145;29;20054;-69
2022/08/28 05:36:18;;;;;;;15.38;3.17;;;15.70;99.90;;;;;;4790178;29;20043;-70
2022/08/28 05:38:45;;;;;;;20.08;3.70;;;;;;;;;;4805352;29;20078;-69
2022/08/28 05:41:10;;;;;;;12.70;3.00;;;14.70;99.90;;;;;;4804979;29;20047;-69
2022/08/28 05:43:37;;;;;;;14.27;3.42;;;;;;;;;;4805299;29;20050;-68
2022/08/28 05:46:08;;;;;;;14.40;3.08;;;15.80;99.90;;;;;;4805097;29;20050;-68
2022/08/28 05:48:35;;;;;;;15.68;2.55;;;15.80;99.40;;;;;;4805555;29;20049;-68
2022/08/28 05:51:11;;;;;;;8.70;2.50;;;16.00;99.90;;;;;;4805316;29;20461;-68
2022/08/28 05:53:39;;;;;;;10.75;2.70;;;15.90;99.70;;;;;;4805052;29;20130;-68
2022/08/28 05:56:06;;;;;;;14.65;3.22;;;;;;;;;;4805120;29;20127;-68
2022/08/28 05:58:33;;;;;;;13.38;2.67;;;;;;;;;;4804895;29;20133;-68
2022/08/28 06:01:21;;;;;;;14.55;3.38;;;15.40;99.90;;;;;;4775149;29;20090;-72
2022/08/28 06:03:56;;;;;;;12.73;3.20;;;15.90;99.90;;;;;;4804807;29;20054;-73
2022/08/28 06:06:24;;;;;;;9.23;2.65;;;16.00;99.80;;;;;;4804805;29;20051;-72
2022/08/28 06:08:58;;;;;;;19.02;3.00;;;16.40;99.90;;;;;;4789811;29;20050;-72
2022/08/28 06:11:24;;;;;;;10.05;2.70;;;;;;;;;;4806090;29;20049;-72
2022/08/28 06:13:51;;;;;;;15.52;3.20;;;;;;;;;;4804717;29;20051;-73
2022/08/28 06:16:18;;;;;;;18.17;3.60;;;;;;;;;;4804892;29;20531;-72
2022/08/28 06:18:45;;;;;;;16.10;3.72;;;;;;;;;;4805011;29;20047;-72
2022/08/28 06:21:12;;;;;;;16.05;3.50;;;15.30;99.90;;;;;;4789654;29;20051;-73
2022/08/28 06:23:38;;;;;;;15.05;2.63;;;;;;;;;;4804737;29;20504;-72
2022/08/28 06:26:05;;;;;;;10.57;3.05;;;16.30;99.00;;;;;;4804719;29;20053;-72
2022/08/28 06:28:32;;;;;;;15.38;2.63;;;;;;;;;;4790012;29;20095;-72
2022/08/28 06:31:02;;;;;;;17.15;2.55;;;16.50;99.30;;;;;;4804568;29;20555;-72
2022/08/28 06:33:28;;;;;;;18.65;3.13;;;;;;;;;;4804507;29;20058;-73
2022/08/28 06:35:55;;;;;;;10.80;2.92;;;15.60;99.90;;;;;;4804529;29;20046;-72
2022/08/28 06:38:23;;;;;;;11.82;2.45;;;16.60;98.80;;;;;;4804485;29;20527;-72
2022/08/28 06:40:54;;;;;;;11.88;2.80;;;16.70;98.60;;;;;;4805108;29;20100;-72
2022/08/28 06:43:24;;;;;;;12.93;3.22;;;17.00;98.40;;;;;;4789629;29;20054;-72
2022/08/28 06:45:53;;;;;;;9.60;2.70;;;16.90;97.90;;;;;;4790823;29;20046;-72
2022/08/28 06:48:20;;;;;;;15.38;2.97;;;;;;;;;;4789890;29;20451;-68
2022/08/28 06:50:48;;;;;;;12.43;2.53;;;17.00;97.70;;;;;;4805469;29;20055;-69
2022/08/28 06:53:17;;;;;;;21.20;2.58;;;17.20;97.50;;;;;;4807209;29;20100;-68
2022/08/28 06:55:43;;;;;;;13.25;2.97;;;;;;;;;;4807954;29;20130;-69
2022/08/28 06:58:11;;;;;;;11.18;2.72;;;17.60;97.30;;;;;;4807836;29;20047;-68
2022/08/28 07:00:37;;;;;;;12.60;3.03;;;17.50;96.80;;;;;;4792703;29;20456;-68
2022/08/28 07:03:07;;;;;;;17.70;3.53;;;17.30;96.50;;;;;;4807663;29;20103;-69
2022/08/28 07:05:33;;;;;;;19.17;3.20;;;18.30;99.90;;;;;;4793207;29;20062;-69
2022/08/28 07:07:59;;;;;;;14.50;2.88;;;17.10;96.60;;;;;;4807745;29;20512;-69
2022/08/28 07:10:28;;;;;;;12.27;2.85;;;;;;;;;;4792577;29;20055;-69
2022/08/28 07:12:54;;;;;;;16.23;2.85;;;;;;;;;;4792292;29;20477;-69
2022/08/28 07:15:20;;;;;;;17.73;3.35;;;17.60;99.90;;;;;;4807827;29;20058;-69
2022/08/28 07:17:45;;;;;;;13.40;2.80;;;17.50;99.90;;;;;;4807728;29;20039;-69
2022/08/28 07:20:12;;;;;;;10.63;2.58;;;;;;;;;;4807468;29;20046;-73
2022/08/28 07:22:41;;;;;;;13.60;2.97;;;18.00;99.90;;;;;;4807542;29;20050;-73
2022/08/28 07:25:09;;;;;;;14.82;3.20;;;17.90;99.90;;;;;;4807461;29;20087;-73
2022/08/28 07:27:36;;;;;;;15.70;2.83;;;;;;;;;;4807181;29;20511;-72
2022/08/28 07:30:02;;;;;;;18.95;3.22;;;;;;;;;;4807216;29;20055;-73
2022/08/28 07:32:28;;;;;;;11.73;3.25;;;;;;;;;;4807076;29;20130;-73
2022/08/28 07:34:55;;;;;;;12.15;2.80;;;;;;;;;;4808279;29;20051;-72
2022/08/28 07:37:22;;;;;;;13.50;3.28;;;;;;;;;;4806950;29;20519;-73
2022/08/28 07:39:48;;;;;;;13.15;3.30;;;;;;;;;;4806880;29;20484;-73
2022/08/28 07:44:48;;;;;;;10.10;2.55;;;;;;;;;;4792041;29;20510;-73
2022/08/28 07:45:01;;;;;;;16.38;3.03;;;;;;;;;;4807250;29;20437;-73
2022/08/28 07:47:32;;;;;;;13.98;3.35;;;17.70;95.30;;;;;;4806972;29;20051;-73
2022/08/28 07:50:01;;;;;;;13.13;2.50;;;18.00;95.40;;;;;;4806815;29;20047;-74
2022/08/28 07:52:28;;;;;;;10.77;2.72;;;;;;;;;;4807279;29;20082;-74
2022/08/28 07:54:55;;;;;;;14.68;3.05;;;17.60;95.40;;;;;;4792062;29;20043;-74
2022/08/28 07:57:21;;;;;;;13.05;2.75;;;;;;;;;;4806739;29;20077;-74
2022/08/28 07:59:47;;;;;;;21.00;2.92;;;16.80;99.70;;;;;;4806908;29;20061;-74
2022/08/28 08:02:13;;;;;;;14.15;2.80;;;;;;;;;;4806931;29;20496;-74
2022/08/28 08:04:40;;;;;;;21.67;3.20;;;;;;;;;;4791363;29;20043;-70
2022/08/28 08:07:07;;;;;;;15.48;2.70;;;18.70;99.60;;;;;;4806459;29;20054;-74
2022/08/28 08:09:40;;;;;;;12.13;3.05;;;17.90;95.20;;;;;;4806695;29;20039;-74
2022/08/28 08:12:06;;;;;;;13.55;3.33;;;17.70;99.60;;;;;;4806410;29;20078;-73
2022/08/28 08:14:32;;;;;;;9.32;3.25;;;;;;;;;;4791564;29;20063;-74
2022/08/28 08:17:01;;;;;;;15.30;2.60;;;17.80;95.00;;;;;;4806481;29;20057;-74
2022/08/28 08:19:27;;;;;;;15.00;2.95;;;;;;;;;;4806426;29;20042;-74
2022/08/28 08:21:53;;;;;;;14.00;2.80;;;;;;;;;;4806167;29;20047;-74
2022/08/28 08:24:19;;;;;;;8.05;2.65;;;18.50;94.00;;;;;;4806474;29;20047;-74
2022/08/28 08:26:47;;;;;;;14.52;3.00;;;18.10;94.80;;;;;;4806368;29;20055;-74
2022/08/28 08:29:13;;;;;;;14.60;3.13;;;;;;;;;;4806367;29;20073;-74
2022/08/28 08:31:39;;;;;;;14.13;2.50;;;;;;;;;;4806063;29;20047;-73
2022/08/28 08:34:06;;;;;;;13.75;2.72;;;;;;;;;;4806070;29;20047;-74
2022/08/28 08:36:34;;;;;;;18.08;3.55;;;18.50;94.30;;;;;;4805890;29;20054;-74
2022/08/28 08:39:00;;;;;;;18.85;2.80;;;18.00;98.30;;;;;;4805772;29;20042;-74
2022/08/28 08:41:47;;;;;;;16.63;3.03;;;18.30;95.80;;;;;;4806042;29;20126;-74
2022/08/28 08:44:42;;;;;;;13.23;2.80;;;19.10;94.50;;;;;;4791014;29;20043;-74
2022/08/28 08:47:25;;;;;;;12.00;2.17;;;19.20;98.00;;;;;;4806151;29;20133;-74
2022/08/28 08:49:52;;;;;;;13.85;2.97;;;;;;;;;;4806092;29;20050;-74
2022/08/28 08:52:39;;;;;;;11.85;2.80;;;19.30;98.00;;;;;;4805998;29;20396;-74
2022/08/28 08:55:25;;;;;;;15.23;3.08;;;19.50;97.30;;;;;;4805719;29;20046;-74
2022/08/28 08:58:06;;;;;;;14.85;3.05;;;19.00;93.30;;;;;;4790635;29;20054;-74
2022/08/28 09:00:49;;;;;;;14.70;2.70;;;18.80;93.40;;;;;;4805408;29;20062;-70
2022/08/28 09:03:22;;;;;;;12.02;2.88;;;19.00;93.30;;;;;;4805514;29;20078;-70
2022/08/28 09:05:56;;;;;;;21.10;2.70;;;19.00;91.60;;;;;;4805392;29;20050;-70
2022/08/28 09:08:49;;;;;;;13.25;2.88;;;19.20;97.00;;;;;;4805691;29;20050;-70
2022/08/28 09:11:37;;;;;;;14.40;2.75;;;19.00;97.00;;;;;;4805016;29;20062;-70
2022/08/28 09:14:15;;;;;;;13.95;3.53;;;19.40;97.30;;;;;;4805136;29;20126;-71
2022/08/28 09:16:43;;;;;;;9.55;2.63;;;18.50;93.00;;;;;;4805089;29;20043;-70
2022/08/28 09:19:13;;;;;;;8.90;2.30;;;18.40;93.20;;;;;;4790476;29;20396;-70
2022/08/28 09:21:43;;;;;;;13.35;3.13;;;17.40;97.40;;;;;;4806314;29;20078;-70
2022/08/28 09:24:31;;;;;;;8.27;2.92;;;18.40;93.70;;;;;;4805200;29;20125;-70
2022/08/28 09:27:06;;;;;;;11.05;3.42;;;18.30;92.60;;;;;;4805086;29;20519;-70
2022/08/28 09:29:35;;;;;;;13.15;2.90;;;18.40;93.70;;;;;;4805326;29;20054;-70
2022/08/28 09:32:30;;;;;;;12.30;3.70;;;19.50;98.20;;;;;;4805083;29;20058;-70
2022/08/28 09:35:11;;;;;;;16.23;3.15;;;18.40;95.80;;;;;;4790243;29;20059;-70
2022/08/28 09:37:38;;;;;;;9.35;2.85;;;18.90;92.90;;;;;;4805110;29;20427;-70
2022/08/28 09:43:26;;;;;;;21.52;3.53;;;18.90;93.40;;;;;;4806237;29;20054;-70
2022/08/28 09:46:23;;;;;;;10.80;2.70;;;19.70;97.20;;;;;;4790171;29;20050;-69
2022/08/28 09:48:53;;;;;;;11.68;3.10;;;;;;;;;;4805074;29;20078;-70
2022/08/28 09:51:21;;;;;;;14.70;3.83;;;18.90;91.60;;;;;;4805146;29;20047;-70
2022/08/28 09:53:50;;;;;;;12.15;2.95;;;18.10;96.50;;;;;;4805215;29;20376;-69
2022/08/28 09:56:48;;;;;;;11.18;2.95;;;18.60;91.20;;;;;;4804913;29;20047;-69
2022/08/28 09:59:16;;;;;;;10.50;2.92;;;18.70;92.40;;;;;;4784730;29;20511;-70
2022/08/28 10:02:10;;;;;;;13.32;3.20;;;18.20;96.60;;;;;;4804820;29;20139;-69
2022/08/28 10:04:53;;;;;;;10.05;2.72;;;19.70;96.40;;;;;;4790059;29;20050;-70
2022/08/28 10:07:45;;;;;;;10.00;2.50;;;18.90;91.70;;;;;;4790020;29;20383;-70
2022/08/28 10:10:52;;;;;;;19.48;3.10;;;19.10;92.20;;;;;;4804726;29;20506;-70
2022/08/28 10:13:34;;;;;;;14.95;3.00;;;19.40;96.20;;;;;;4797459;29;20055;-69
2022/08/28 10:16:30;;;;;;;12.80;2.97;;;18.30;93.20;;;;;;4805130;29;20046;-70
2022/08/28 10:19:11;;;;;;;8.82;2.60;;;19.30;95.50;;;;;;4804995;29;20111;-70
2022/08/28 10:21:37;;;;;;;10.25;2.75;;;18.50;94.80;;;;;;4804665;29;20126;-70
2022/08/28 10:24:05;;;;;;;16.30;2.95;;;19.40;94.70;;;;;;4804711;29;20126;-70
2022/08/28 10:26:37;;;;;;;11.85;2.70;;;20.30;94.70;;;;;;4789772;29;20062;-69
2022/08/28 10:29:47;;;;;;;10.13;2.30;;;20.20;94.90;;;;;;4792846;29;20046;-70
2022/08/28 10:32:37;;;;;;;12.13;2.40;;;18.70;90.40;;;;;;4783864;29;20085;-70
2022/08/28 10:35:27;;;;;;;10.40;3.30;;;19.50;94.60;;;;;;4793150;29;20050;-69
2022/08/28 10:38:10;;;;;;;10.48;3.03;;;18.50;94.30;;;;;;4808455;29;20047;-70
2022/08/28 10:41:04;;;;;;;12.98;2.63;;;19.60;89.00;;;;;;4793042;29;20043;-69
2022/08/28 10:43:42;;;;;;;8.80;2.38;;;20.40;94.20;;;;;;4787852;29;20141;-69
2022/08/28 10:46:18;;;;;;;8.10;2.40;;;19.90;87.00;;;;;;4807942;29;20100;-69
2022/08/28 10:48:53;;;;;;;9.63;2.60;;;20.50;93.60;;;;;;4807841;29;20053;-69
2022/08/28 10:51:38;;;;;;;13.82;2.90;;;19.40;93.30;;;;;;4807726;29;20055;-69
2022/08/28 10:54:28;;;;;;;11.55;2.78;;;19.00;93.20;;;;;;4807621;29;20082;-69
2022/08/28 10:57:18;;;;;;;10.35;2.70;;;20.40;86.80;;;;;;4807560;29;20078;-69
2022/08/28 10:59:47;;;;;;;10.05;2.65;;;19.00;92.00;;;;;;4807376;29;20066;-69
2022/08/28 11:02:15;;;;;;;12.60;3.08;;;20.50;93.60;;;;;;4807802;29;20062;-70
2022/08/28 11:04:42;;;;;;;10.52;2.60;;;;;;;;;;4807569;29;20492;-69
2022/08/28 11:07:12;;;;;;;12.88;2.97;;;19.20;94.10;;;;;;4807732;29;20475;-70
2022/08/28 11:09:48;;;;;;;12.18;2.92;;;19.60;87.30;;;;;;4807366;29;20047;-70
2022/08/28 11:12:18;;;;;;;10.05;2.70;;;19.10;94.00;;;;;;4807343;29;20089;-70
2022/08/28 11:14:49;;;;;;;7.57;2.80;;;19.80;94.30;;;;;;4807527;29;20054;-70
2022/08/28 11:17:21;;;;;;;13.43;2.70;;;19.90;94.20;;;;;;4808285;29;20049;-70
2022/08/28 11:20:23;;;;;;;13.45;3.00;;;20.00;94.10;;;;;;4808330;29;20047;-69
2022/08/28 11:23:00;;;;;;;13.60;2.97;;;20.00;86.90;;;;;;4807602;29;20103;-70
2022/08/28 11:25:40;;;;;;;12.45;2.90;;;20.80;94.20;;;;;;4807325;29;20071;-69
2022/08/28 11:28:37;;;;;;;9.10;2.63;;;19.90;94.00;;;;;;4807237;29;20137;-70
2022/08/28 11:31:03;;;;;;;13.10;3.38;;;;;;;;;;4792296;29;20058;-69
2022/08/28 11:33:48;;;;;;;9.20;2.58;;;19.40;93.90;;;;;;4807103;29;20373;-69
2022/08/28 11:36:24;;;;;;;15.85;2.63;;;20.70;94.10;;;;;;4792338;29;20488;-69
2022/08/28 11:38:53;;;;;;;13.02;3.38;;;21.10;93.70;;;;;;4791579;29;20121;-70
2022/08/28 11:41:28;;;;;;;6.97;2.50;;;20.40;85.40;;;;;;4806847;29;20046;-69
2022/08/28 11:44:11;;;;;;;13.18;3.47;;;20.60;85.10;;;;;;4806344;29;20043;-74
2022/08/28 11:46:41;;;;;;;19.88;6.40;;;20.20;87.30;;;;;;4789344;29;20059;-79
2022/08/28 11:49:25;;;;;;;15.30;4.63;;;19.30;92.80;;;;;;4797297;29;20499;-79
2022/08/28 11:52:21;;;;;;;16.27;3.33;;;20.50;93.30;;;;;;4806632;29;20050;-74
2022/08/28 11:55:06;;;;;;;16.02;2.85;;;21.10;93.60;;;;;;4804769;29;20509;-76
2022/08/28 11:58:02;;;;;;;10.15;2.75;;;20.50;85.20;;;;;;4790200;29;20047;-74
2022/08/28 12:00:37;;;;;;;13.63;2.97;;;21.10;93.30;;;;;;4774523;30;20068;-73
2022/08/28 12:03:05;;;;;;;10.55;2.70;;;20.10;93.00;;;;;;4779249;29;20042;-75
2022/08/28 12:05:31;;;;;;;10.48;2.88;;;21.40;93.10;;;;;;4806666;29;20039;-75
2022/08/28 12:07:59;;;;;;;10.05;2.80;;;20.60;86.70;;;;;;4787391;30;20120;-75
2022/08/28 12:10:29;;;;;;;18.88;2.97;;;19.90;92.70;;;;;;4774809;29;20047;-71
2022/08/28 12:13:08;;;;;;;11.07;2.97;;;21.00;92.30;;;;;;4802931;29;20047;-71
2022/08/28 12:15:34;;;;;;;13.07;2.67;;;20.10;92.30;;;;;;4788248;30;20497;-71
2022/08/28 12:18:01;;;;;;;8.23;2.72;;;21.70;92.60;;;;;;4776329;29;20092;-70
2022/08/28 12:20:54;;;;;;;9.50;2.20;;;21.30;91.10;;;;;;4806438;29;20042;-71
2022/08/28 12:23:43;;;;;;;12.10;2.90;;;20.90;92.90;;;;;;4806359;29;20062;-71
2022/08/28 12:26:29;;;;;;;15.45;2.67;;;20.50;92.80;;;;;;4815145;29;20408;-71
2022/08/28 12:29:13;;;;;;;12.05;2.85;;;20.90;93.00;;;;;;4809199;29;20182;-70
2022/08/28 12:34:40;;;;;;;20.00;2.83;;;20.80;85.80;;;;;;4814659;29;20108;-70
2022/08/28 12:37:35;;;;;;;13.27;2.67;;;21.30;93.80;;;;;;4831866;29;20050;-71
2022/08/28 12:40:14;;;;;;;10.98;3.17;;;21.10;93.80;;;;;;4795979;29;20499;-71
2022/08/28 12:42:54;;;;;;;11.55;2.53;;;21.00;88.30;;;;;;4814048;29;20053;-71
2022/08/28 12:45:41;;;;;;;16.35;2.67;;;20.40;92.80;;;;;;4827919;29;20046;-70
2022/08/28 12:48:31;;;;;;;15.05;2.50;;;21.30;93.20;;;;;;4813301;29;20602;-70
2022/08/28 12:51:04;;;;;;;11.68;2.80;;;19.60;92.20;;;;;;4814292;29;20077;-70
2022/08/28 12:53:41;;;;;;;7.88;2.30;;;20.70;93.80;;;;;;4797923;29;20358;-70
2022/08/28 12:56:12;;;;;;;9.95;2.70;;;20.40;89.00;;;;;;4806258;29;20507;-71
2022/08/28 12:58:39;;;;;;;6.65;2.10;;;20.60;93.90;;;;;;4800904;29;20039;-71
2022/08/28 13:01:13;;;;;;;10.80;2.65;;;21.40;90.90;;;;;;4811537;29;20051;-70
2022/08/28 13:03:48;;;;;;;10.68;2.53;;;19.70;94.00;;;;;;4794816;29;20070;-71
2022/08/28 13:06:39;;;;;;;15.25;2.67;;;20.20;94.00;;;;;;4805504;29;20138;-70
2022/08/28 13:09:13;;;;;;;13.57;2.85;;;21.20;94.50;;;;;;4802764;29;20080;-75
2022/08/28 13:11:48;;;;;;;14.30;2.53;;;19.30;93.10;;;;;;4798076;29;20047;-75
2022/08/28 13:14:37;;;;;;;7.60;2.47;;;20.80;94.40;;;;;;4814603;29;20050;-75
2022/08/28 13:17:03;;;;;;;7.93;2.13;;;19.80;93.90;;;;;;4796528;29;20070;-76
2022/08/28 13:19:31;;;;;;;16.33;3.13;;;21.60;94.00;;;;;;4798614;29;20055;-75
2022/08/28 13:22:27;;;;;;;9.10;2.20;;;20.90;93.70;;;;;;4791210;29;20054;-75
2022/08/28 13:25:01;;;;;;;13.50;3.05;;;20.00;93.30;;;;;;4811962;29;20491;-75
2022/08/28 13:27:27;;;;;;;35.85;3.28;;;21.50;91.50;;;;;;4813758;29;20175;-76
2022/08/28 13:30:19;;;;;;;10.98;2.63;;;21.60;93.70;;;;;;4815546;29;20096;-75
2022/08/28 13:33:00;;;;;;;8.45;2.22;;;20.60;88.50;;;;;;4796961;29;20107;-75
2022/08/28 13:35:25;;;;;;;13.18;3.20;;;21.50;90.80;;;;;;4829756;29;20133;-75
2022/08/28 13:37:52;;;;;;;12.82;3.03;;;;;;;;;;4805138;29;20639;-74
2022/08/28 13:40:26;;;;;;;6.60;2.40;;;21.60;93.50;;;;;;4790834;29;20078;-74
2022/08/28 13:42:59;;;;;;;11.45;2.50;;;19.40;93.30;;;;;;4805010;29;20054;-75
2022/08/28 13:45:26;;;;;;;12.57;2.78;;;21.50;94.10;;;;;;4790044;29;20043;-75
2022/08/28 13:47:52;;;;;;;9.18;2.72;;;;;;;;;;4789731;29;20051;-75